createdAt,value
2022-09-21T00:01:33.273Z,16.15
2022-09-21T00:04:03.098Z,10.30
2022-09-21T00:06:34.543Z,11.77
2022-09-21T00:09:04.981Z,11.38
2022-09-21T00:11:34.363Z,17.50
2022-09-21T00:14:07.111Z,10.40
2022-09-21T00:16:35.286Z,8.98
2022-09-21T00:19:03.850Z,10.60
2022-09-21T00:21:33.230Z,14.95
2022-09-21T00:24:02.490Z,17.05
2022-09-21T00:26:32.846Z,16.13
2022-09-21T00:29:03.292Z,12.98
2022-09-21T00:31:31.998Z,9.15
2022-09-21T00:34:03.830Z,9.35
2022-09-21T00:36:34.447Z,10.73
2022-09-21T00:39:04.127Z,14.70
2022-09-21T00:41:34.473Z,13.48
2022-09-21T00:44:31.858Z,13.60
2022-09-21T00:47:04.632Z,14.17
2022-09-21T00:49:35.094Z,14.30
2022-09-21T00:52:06.768Z,11.18
2022-09-21T00:54:39.157Z,7.57
2022-09-21T00:57:08.170Z,11.88
2022-09-21T00:59:38.816Z,11.27
2022-09-21T01:02:07.162Z,14.30
2022-09-21T01:04:36.325Z,14.18
2022-09-21T01:07:07.555Z,13.50
2022-09-21T01:09:36.119Z,13.82
2022-09-21T01:12:13.436Z,17.50
2022-09-21T01:14:54.764Z,12.77
2022-09-21T01:17:29.624Z,16.02
2022-09-21T01:20:22.042Z,11.20
2022-09-21T01:23:06.671Z,11.50
2022-09-21T01:25:40.236Z,14.00
2022-09-21T01:28:24.083Z,9.95
2022-09-21T01:30:54.229Z,14.30
2022-09-21T01:33:26.542Z,16.77
2022-09-21T01:35:58.119Z,18.00
2022-09-21T01:38:28.992Z,17.40
2022-09-21T01:41:00.228Z,15.83
2022-09-21T01:43:33.114Z,14.65
2022-09-21T01:46:04.343Z,14.82
2022-09-21T01:48:35.300Z,11.98
2022-09-21T01:51:05.408Z,12.50
2022-09-21T01:53:34.912Z,12.93
2022-09-21T01:56:07.638Z,18.27
2022-09-21T01:58:40.180Z,16.55
2022-09-21T02:01:13.914Z,20.60
2022-09-21T02:03:46.353Z,11.75
2022-09-21T02:06:14.746Z,19.02
2022-09-21T02:08:42.394Z,15.52
2022-09-21T02:11:12.854Z,14.48
2022-09-21T02:14:42.133Z,16.90
2022-09-21T02:17:19.166Z,24.48
2022-09-21T02:19:54.260Z,22.35
2022-09-21T02:22:29.648Z,19.23
2022-09-21T02:25:05.341Z,13.95
2022-09-21T02:27:36.967Z,18.65
2022-09-21T02:30:09.095Z,17.73
2022-09-21T02:32:50.492Z,20.63
2022-09-21T02:35:30.541Z,16.67
2022-09-21T02:38:07.545Z,14.93
2022-09-21T02:40:40.456Z,17.60
2022-09-21T02:43:12.060Z,17.88
2022-09-21T02:45:45.354Z,15.73
2022-09-21T02:48:16.840Z,15.27
2022-09-21T02:50:46.474Z,21.23
2022-09-21T02:53:18.161Z,19.27
2022-09-21T02:55:47.295Z,12.07
2022-09-21T02:58:18.049Z,17.33
2022-09-21T03:00:45.860Z,14.93
2022-09-21T03:03:22.071Z,16.65
2022-09-21T03:05:51.576Z,24.55
2022-09-21T03:08:19.836Z,30.48
2022-09-21T03:10:50.858Z,20.93
2022-09-21T03:13:19.587Z,17.30
2022-09-21T03:15:48.461Z,20.63
2022-09-21T03:18:16.087Z,17.33
2022-09-21T03:20:48.016Z,15.90
2022-09-21T03:23:16.487Z,19.38
2022-09-21T03:25:45.269Z,20.80
2022-09-21T03:28:13.593Z,16.55
2022-09-21T03:30:41.837Z,17.05
2022-09-21T03:33:10.227Z,20.02
2022-09-21T03:35:39.393Z,20.98
2022-09-21T03:38:08.596Z,23.00
2022-09-21T03:40:36.361Z,23.98
2022-09-21T03:43:04.871Z,22.20
2022-09-21T03:45:33.547Z,17.65
2022-09-21T03:48:02.635Z,18.30
2022-09-21T03:50:30.505Z,18.08
2022-09-21T03:52:58.724Z,17.90
2022-09-21T03:55:28.068Z,21.15
2022-09-21T03:57:55.671Z,20.13
2022-09-21T04:00:24.887Z,22.25
2022-09-21T04:02:53.721Z,18.23
2022-09-21T04:05:21.837Z,23.83
2022-09-21T04:07:50.072Z,20.15
2022-09-21T04:10:21.569Z,23.27
2022-09-21T04:12:52.226Z,20.88
2022-09-21T04:15:20.518Z,28.00
2022-09-21T04:17:48.596Z,21.58
2022-09-21T04:20:16.710Z,21.48
2022-09-21T04:22:44.893Z,21.52
2022-09-21T04:25:13.126Z,24.52
2022-09-21T04:27:41.542Z,23.25
2022-09-21T04:30:13.436Z,19.92
2022-09-21T04:32:41.593Z,22.75
2022-09-21T04:35:10.639Z,27.33
2022-09-21T04:37:40.516Z,25.52
2022-09-21T04:40:10.578Z,30.98
2022-09-21T04:42:38.805Z,29.77
2022-09-21T04:45:08.392Z,30.55
2022-09-21T04:47:37.745Z,28.52
2022-09-21T04:50:06.539Z,28.87
2022-09-21T04:52:34.497Z,22.15
2022-09-21T04:55:02.102Z,21.92
2022-09-21T04:57:30.582Z,22.00
2022-09-21T04:59:58.235Z,53.97
2022-09-21T05:02:27.189Z,33.70
2022-09-21T05:04:56.496Z,43.00
2022-09-21T05:07:24.117Z,73.80
2022-09-21T05:10:09.502Z,56.03
2022-09-21T05:12:40.870Z,29.58
2022-09-21T05:15:10.581Z,26.92
2022-09-21T05:17:38.312Z,22.23
2022-09-21T05:20:08.446Z,23.25
2022-09-21T05:22:36.319Z,23.42
2022-09-21T05:25:04.405Z,64.87
2022-09-21T05:27:32.068Z,25.13
2022-09-21T05:30:00.343Z,28.52
2022-09-21T05:32:31.400Z,20.80
2022-09-21T05:35:08.697Z,19.42
2022-09-21T05:37:48.546Z,30.52
2022-09-21T05:40:17.234Z,65.38
2022-09-21T05:42:45.827Z,84.85
2022-09-21T05:45:19.104Z,70.93
2022-09-21T05:47:54.366Z,105.30
2022-09-21T05:50:35.442Z,47.85
2022-09-21T05:53:17.185Z,61.47
2022-09-21T05:55:52.632Z,100.85
2022-09-21T05:58:24.165Z,42.28
2022-09-21T06:00:59.692Z,28.00
2022-09-21T06:03:29.532Z,30.05
2022-09-21T06:05:59.189Z,33.10
2022-09-21T06:08:28.200Z,24.23
2022-09-21T06:10:56.593Z,19.77
2022-09-21T06:13:24.441Z,26.88
2022-09-21T06:15:51.998Z,16.70
2022-09-21T06:18:20.187Z,18.75
2022-09-21T06:20:48.070Z,13.88
2022-09-21T06:23:18.149Z,15.65
2022-09-21T06:25:45.986Z,16.33
2022-09-21T06:28:14.304Z,12.95
2022-09-21T06:30:44.830Z,15.90
2022-09-21T06:33:12.960Z,16.92
2022-09-21T06:35:40.747Z,17.33
2022-09-21T06:38:09.183Z,19.58
2022-09-21T06:40:41.615Z,13.85
2022-09-21T06:43:10.289Z,15.43
2022-09-21T06:45:38.166Z,16.52
2022-09-21T06:48:06.963Z,16.60
2022-09-21T06:50:39.918Z,16.00
2022-09-21T06:53:08.895Z,20.13
2022-09-21T06:55:36.555Z,14.02
2022-09-21T06:58:09.382Z,15.50
2022-09-21T07:00:37.474Z,13.85
2022-09-21T07:03:05.523Z,15.07
2022-09-21T07:05:33.610Z,15.60
2022-09-21T07:08:02.225Z,11.77
2022-09-21T07:10:30.352Z,16.17
2022-09-21T07:13:03.642Z,14.23
2022-09-21T07:15:33.699Z,14.30
2022-09-21T07:18:08.462Z,17.35
2022-09-21T07:20:39.243Z,14.23
2022-09-21T07:23:11.545Z,13.63
2022-09-21T07:25:39.753Z,15.55
2022-09-21T07:28:07.740Z,17.15
2022-09-21T07:30:38.504Z,19.42
2022-09-21T07:33:08.201Z,14.40
2022-09-21T07:35:36.739Z,18.58
2022-09-21T07:38:06.464Z,17.13
2022-09-21T07:40:35.607Z,13.32
2022-09-21T07:43:05.004Z,15.32
2022-09-21T07:45:32.763Z,17.55
2022-09-21T07:48:05.358Z,19.20
2022-09-21T07:50:34.082Z,19.70
2022-09-21T07:53:03.319Z,20.45
2022-09-21T07:55:31.733Z,22.52
2022-09-21T07:58:17.329Z,21.63
2022-09-21T08:00:45.293Z,17.63
2022-09-21T08:03:14.475Z,19.25
2022-09-21T08:05:42.426Z,19.25
2022-09-21T08:08:10.600Z,18.58
2022-09-21T08:10:39.449Z,20.92
2022-09-21T08:13:07.178Z,23.30
2022-09-21T08:15:49.474Z,19.48
2022-09-21T08:18:19.746Z,22.20
2022-09-21T08:20:55.700Z,23.80
2022-09-21T08:23:26.354Z,19.40
2022-09-21T08:25:54.818Z,24.63
2022-09-21T08:28:23.239Z,20.75
2022-09-21T08:30:51.729Z,22.05
2022-09-21T08:33:24.835Z,19.20
2022-09-21T08:35:55.417Z,18.33
2022-09-21T08:38:23.596Z,14.47
2022-09-21T08:40:53.044Z,14.98
2022-09-21T08:43:29.101Z,15.93
2022-09-21T08:45:57.472Z,15.32
2022-09-21T08:48:35.802Z,15.07
2022-09-21T08:51:08.072Z,14.75
2022-09-21T08:53:37.799Z,16.85
2022-09-21T08:56:06.229Z,13.98
2022-09-21T08:58:34.079Z,18.10
2022-09-21T09:01:15.815Z,15.43
2022-09-21T09:03:55.576Z,16.65
2022-09-21T09:06:30.716Z,13.65
2022-09-21T09:09:26.189Z,14.88
2022-09-21T09:12:10.907Z,13.02
2022-09-21T09:15:11.626Z,16.10
2022-09-21T09:17:49.078Z,16.27
2022-09-21T09:20:21.215Z,13.70
2022-09-21T09:22:51.624Z,13.30
2022-09-21T09:25:22.405Z,14.73
2022-09-21T09:27:52.870Z,14.30
2022-09-21T09:31:22.164Z,14.65
2022-09-21T09:33:54.697Z,15.52
2022-09-21T09:36:53.845Z,14.73
2022-09-21T09:39:16.152Z,12.85
2022-09-21T09:41:59.183Z,13.93
2022-09-21T09:44:39.283Z,17.55
2022-09-21T09:47:13.859Z,16.73
2022-09-21T09:49:50.105Z,12.18
2022-09-21T09:52:20.674Z,12.07
2022-09-21T09:54:48.782Z,12.40
2022-09-21T09:57:17.120Z,11.40
2022-09-21T09:59:53.341Z,11.97
2022-09-21T10:02:24.374Z,12.52
2022-09-21T10:05:03.517Z,12.90
2022-09-21T10:07:37.362Z,11.20
2022-09-21T10:10:24.050Z,14.55
2022-09-21T10:12:52.648Z,13.60
2022-09-21T10:15:21.832Z,11.68
2022-09-21T10:17:50.169Z,9.43
2022-09-21T10:20:20.300Z,13.05
2022-09-21T10:22:55.039Z,6.47
2022-09-21T10:25:22.988Z,14.57
2022-09-21T10:27:52.183Z,9.30
2022-09-21T10:30:34.145Z,8.68
2022-09-21T10:33:03.313Z,9.07
2022-09-21T10:35:31.104Z,8.43
2022-09-21T10:38:21.149Z,10.38
2022-09-21T10:40:50.357Z,6.28
2022-09-21T10:43:27.255Z,11.07
2022-09-21T10:45:56.679Z,5.70
2022-09-21T10:48:25.522Z,6.95
2022-09-21T10:50:54.999Z,8.27
2022-09-21T10:53:28.668Z,7.20
2022-09-21T10:56:14.998Z,5.55
2022-09-21T10:59:12.763Z,7.87
2022-09-21T11:01:45.602Z,7.38
2022-09-21T11:04:17.256Z,10.57
2022-09-21T11:06:47.055Z,4.68
2022-09-21T11:09:18.433Z,6.55
2022-09-21T11:11:53.292Z,4.65
2022-09-21T11:14:30.845Z,7.72
2022-09-21T11:17:01.771Z,7.00
2022-09-21T11:19:34.871Z,8.98
2022-09-21T11:22:08.756Z,9.07
2022-09-21T11:24:47.298Z,6.47
2022-09-21T11:27:16.700Z,10.90
2022-09-21T11:29:51.534Z,8.77
2022-09-21T11:32:37.828Z,6.18
2022-09-21T11:35:20.078Z,7.13
2022-09-21T11:38:06.340Z,7.35
2022-09-21T11:40:45.475Z,7.55
2022-09-21T11:43:24.155Z,7.47
2022-09-21T11:45:59.472Z,8.93
2022-09-21T11:48:38.571Z,9.00
2022-09-21T11:52:08.551Z,3.67
2022-09-21T11:54:58.678Z,7.93
2022-09-21T11:57:29.452Z,8.65
2022-09-21T12:00:15.615Z,6.38
2022-09-21T12:03:25.931Z,7.82
2022-09-21T12:06:05.335Z,5.03
2022-09-21T12:08:46.386Z,2.83
2022-09-21T12:11:21.203Z,4.18
2022-09-21T12:14:00.087Z,5.82
2022-09-21T12:16:34.283Z,6.15
2022-09-21T12:19:13.591Z,7.90
2022-09-21T12:21:45.606Z,5.65
2022-09-21T12:24:16.516Z,7.35
2022-09-21T12:26:47.344Z,4.68
2022-09-21T12:29:25.478Z,4.00
2022-09-21T12:32:00.807Z,8.07
2022-09-21T12:34:31.991Z,5.40
2022-09-21T12:37:06.637Z,7.15
2022-09-21T12:39:40.438Z,4.90
2022-09-21T12:42:27.078Z,6.13
2022-09-21T12:45:59.535Z,4.25
2022-09-21T12:48:34.491Z,5.88
2022-09-21T12:51:06.424Z,4.20
2022-09-21T12:53:37.729Z,5.90
2022-09-21T12:56:10.195Z,7.72
2022-09-21T12:58:55.349Z,6.93
2022-09-21T13:01:30.991Z,4.72
2022-09-21T13:04:14.138Z,5.32
2022-09-21T13:06:58.602Z,5.28
2022-09-21T13:09:27.100Z,4.10
2022-09-21T13:11:57.779Z,3.30
2022-09-21T13:14:26.769Z,5.18
2022-09-21T13:16:57.620Z,4.07
2022-09-21T13:19:29.775Z,10.00
2022-09-21T13:22:21.575Z,2.92
2022-09-21T13:25:01.620Z,6.43
2022-09-21T13:28:00.564Z,5.68
2022-09-21T13:30:35.750Z,6.07
2022-09-21T13:33:05.219Z,5.65
2022-09-21T13:36:10.712Z,3.22
2022-09-21T13:39:14.419Z,4.50
2022-09-21T13:42:03.210Z,5.28
2022-09-21T13:44:42.602Z,3.17
2022-09-21T13:47:11.436Z,4.50
2022-09-21T13:49:50.957Z,9.73
2022-09-21T13:52:35.588Z,2.33
2022-09-21T13:55:05.603Z,3.72
2022-09-21T13:57:38.144Z,7.53
2022-09-21T14:00:37.859Z,4.80
2022-09-21T14:03:08.155Z,3.00
2022-09-21T14:05:40.696Z,5.88
2022-09-21T14:08:28.177Z,4.35
2022-09-21T14:10:59.147Z,2.23
2022-09-21T14:13:31.323Z,3.90
2022-09-21T14:16:27.605Z,4.35
2022-09-21T14:18:55.443Z,3.37
2022-09-21T14:21:24.085Z,3.17
2022-09-21T14:24:27.154Z,5.35
2022-09-21T14:27:09.725Z,4.95
2022-09-21T14:29:45.863Z,2.53
2022-09-21T14:32:23.529Z,4.18
2022-09-21T14:34:56.500Z,2.45
2022-09-21T14:37:32.584Z,3.70
2022-09-21T14:40:05.850Z,2.85
2022-09-21T14:42:35.031Z,4.18
2022-09-21T14:45:04.331Z,2.83
2022-09-21T14:47:46.252Z,4.15
2022-09-21T14:50:32.731Z,4.60
2022-09-21T14:53:10.049Z,2.85
2022-09-21T14:55:56.660Z,3.80
2022-09-21T14:58:36.051Z,2.58
2022-09-21T15:01:22.175Z,4.45
2022-09-21T15:04:10.538Z,6.00
2022-09-21T15:06:59.096Z,3.88
2022-09-21T15:10:02.652Z,3.83
2022-09-21T15:12:38.791Z,2.28
2022-09-21T15:15:22.099Z,3.60
2022-09-21T15:18:03.826Z,2.35
2022-09-21T15:20:33.312Z,6.32
2022-09-21T15:23:02.247Z,2.95
2022-09-21T15:25:33.399Z,4.68
2022-09-21T15:28:04.292Z,3.55
2022-09-21T15:30:34.424Z,2.78
2022-09-21T15:33:03.178Z,6.97
2022-09-21T15:35:33.238Z,4.57
2022-09-21T15:38:28.114Z,3.50
2022-09-21T15:41:01.426Z,4.15
2022-09-21T15:43:34.424Z,3.23
2022-09-21T15:46:04.578Z,3.95
2022-09-21T15:48:39.419Z,2.33
2022-09-21T15:51:13.068Z,2.75
2022-09-21T15:53:45.266Z,3.78
2022-09-21T15:56:19.389Z,3.08
2022-09-21T15:58:53.746Z,3.17
2022-09-21T16:01:23.772Z,1.80
2022-09-21T16:04:05.137Z,3.53
2022-09-21T16:06:38.435Z,3.58
2022-09-21T16:09:42.687Z,3.10
2022-09-21T16:12:41.710Z,4.10
2022-09-21T16:15:17.843Z,2.87
2022-09-21T16:18:01.586Z,2.53
2022-09-21T16:20:41.732Z,4.50
2022-09-21T16:23:14.828Z,1.90
2022-09-21T16:25:47.196Z,1.77
2022-09-21T16:28:36.316Z,3.25
2022-09-21T16:31:25.376Z,3.35
2022-09-21T16:34:05.791Z,4.50
2022-09-21T16:36:43.551Z,4.80
2022-09-21T16:39:15.568Z,4.88
2022-09-21T16:41:47.591Z,1.77
2022-09-21T16:44:21.046Z,5.10
2022-09-21T16:46:53.946Z,3.28
2022-09-21T16:49:25.747Z,3.95
2022-09-21T16:51:55.935Z,3.40
2022-09-21T16:54:25.170Z,3.28
2022-09-21T16:56:55.110Z,3.63
2022-09-21T16:59:23.058Z,4.15
2022-09-21T17:01:57.809Z,3.57
2022-09-21T17:04:27.234Z,4.10
2022-09-21T17:06:56.354Z,5.55
2022-09-21T17:09:29.907Z,5.07
2022-09-21T17:11:59.449Z,3.05
2022-09-21T17:14:27.211Z,3.80
2022-09-21T17:16:58.766Z,6.88
2022-09-21T17:19:28.068Z,6.20
2022-09-21T17:21:55.753Z,4.57
2022-09-21T17:24:48.795Z,3.13
2022-09-21T17:27:12.283Z,3.90
2022-09-21T17:29:47.234Z,2.55
2022-09-21T17:32:20.549Z,3.13
2022-09-21T17:34:50.498Z,3.72
2022-09-21T17:37:18.141Z,1.83
2022-09-21T17:39:46.239Z,4.60
2022-09-21T17:42:17.967Z,3.53
2022-09-21T17:45:01.585Z,3.53
2022-09-21T17:47:33.856Z,3.70
2022-09-21T17:50:10.035Z,6.07
2022-09-21T17:52:55.850Z,3.78
2022-09-21T17:55:24.190Z,4.70
2022-09-21T18:03:44.691Z,5.90
2022-09-21T18:06:13.847Z,8.05
2022-09-21T18:08:42.350Z,6.72
2022-09-21T18:11:33.143Z,7.07
2022-09-21T18:14:08.297Z,6.07
2022-09-21T18:16:47.416Z,4.18
2022-09-21T18:19:30.930Z,7.27
2022-09-21T18:22:04.696Z,3.53
2022-09-21T18:24:32.905Z,5.80
2022-09-21T18:27:02.227Z,5.97
2022-09-21T18:29:41.128Z,5.15
2022-09-21T18:32:25.690Z,7.78
2022-09-21T18:35:13.859Z,4.57
2022-09-21T18:37:48.635Z,6.97
2022-09-21T18:40:22.342Z,8.75
2022-09-21T18:42:55.879Z,3.83
2022-09-21T18:45:28.927Z,4.40
2022-09-21T18:48:17.474Z,3.00
2022-09-21T18:50:50.828Z,4.40
2022-09-21T18:53:28.121Z,7.03
2022-09-21T18:55:57.062Z,5.22
2022-09-21T18:58:25.455Z,8.80
2022-09-21T19:00:53.845Z,8.20
2022-09-21T19:03:22.233Z,7.18
2022-09-21T19:06:13.005Z,11.07
2022-09-21T19:08:46.254Z,6.00
2022-09-21T19:11:22.246Z,10.35
2022-09-21T19:13:56.076Z,8.87
2022-09-21T19:16:29.281Z,5.22
2022-09-21T19:19:06.662Z,8.23
2022-09-21T19:21:41.802Z,12.90
2022-09-21T19:24:19.831Z,6.65
2022-09-21T19:27:03.341Z,11.13
2022-09-21T19:29:42.835Z,9.30
2022-09-21T19:32:17.439Z,16.07
2022-09-21T19:34:45.945Z,10.93
2022-09-21T19:37:15.384Z,13.45
2022-09-21T19:39:44.524Z,15.20
2022-09-21T19:42:21.211Z,14.55
2022-09-21T19:44:59.153Z,15.50
2022-09-21T19:47:30.513Z,13.60
2022-09-21T19:50:04.108Z,11.63
2022-09-21T19:52:36.579Z,13.45
2022-09-21T19:55:23.152Z,8.95
2022-09-21T19:58:09.257Z,15.70
2022-09-21T20:00:38.427Z,6.60
2022-09-21T20:03:14.235Z,12.33
2022-09-21T20:05:49.378Z,10.07
2022-09-21T20:08:26.484Z,10.40
2022-09-21T20:11:08.062Z,7.18
2022-09-21T20:14:07.306Z,9.40
2022-09-21T20:16:43.744Z,10.00
2022-09-21T20:19:19.376Z,6.33
2022-09-21T20:21:53.286Z,10.25
2022-09-21T20:24:32.061Z,5.35
2022-09-21T20:27:00.324Z,6.97
2022-09-21T20:29:28.300Z,6.13
2022-09-21T20:31:56.510Z,6.95
2022-09-21T20:34:24.432Z,5.00
2022-09-21T20:36:52.306Z,8.13
2022-09-21T20:39:20.235Z,6.43
2022-09-21T20:41:49.765Z,6.78
2022-09-21T20:44:17.641Z,6.87
2022-09-21T20:46:45.179Z,7.28
2022-09-21T20:49:15.244Z,3.20
2022-09-21T20:51:43.040Z,5.55
2022-09-21T20:54:11.444Z,4.78
2022-09-21T20:56:39.499Z,4.38
2022-09-21T20:59:09.481Z,6.40
2022-09-21T21:01:37.261Z,9.52
2022-09-21T21:04:05.336Z,5.77
2022-09-21T21:06:35.147Z,8.25
2022-09-21T21:09:02.778Z,5.28
2022-09-21T21:11:31.486Z,6.85
2022-09-21T21:13:59.332Z,7.38
2022-09-21T21:16:28.448Z,6.30
2022-09-21T21:18:56.398Z,8.27
2022-09-21T21:21:25.555Z,10.65
2022-09-21T21:24:10.912Z,9.85
2022-09-21T21:27:00.671Z,10.27
2022-09-21T21:29:26.605Z,9.00
2022-09-21T21:32:00.186Z,9.20
2022-09-21T21:34:28.192Z,12.40
2022-09-21T21:36:55.970Z,8.18
2022-09-21T21:39:23.591Z,10.02
2022-09-21T21:41:51.261Z,11.65
2022-09-21T21:44:18.886Z,7.80
2022-09-21T21:46:46.489Z,9.68
2022-09-21T21:49:16.138Z,11.50
2022-09-21T21:51:44.752Z,10.53
2022-09-21T21:54:13.336Z,8.48
2022-09-21T21:56:41.607Z,11.52
2022-09-21T21:59:11.318Z,11.07
2022-09-21T22:01:41.535Z,7.50
2022-09-21T22:04:09.608Z,10.45
2022-09-21T22:06:40.308Z,7.50
2022-09-21T22:09:10.394Z,9.63
2022-09-21T22:11:39.148Z,7.65
2022-09-21T22:14:08.341Z,10.02
2022-09-21T22:16:37.866Z,9.93
2022-09-21T22:19:07.143Z,11.20
2022-09-21T22:21:36.253Z,12.05
2022-09-21T22:24:07.109Z,11.15
2022-09-21T22:26:39.135Z,10.52
2022-09-21T22:29:08.972Z,8.17
2022-09-21T22:31:38.819Z,12.88
2022-09-21T22:34:07.739Z,11.52
2022-09-21T22:36:37.006Z,12.47
2022-09-21T22:39:07.452Z,11.43
2022-09-21T22:41:36.848Z,13.63
2022-09-21T22:44:04.791Z,13.15
2022-09-21T22:46:33.370Z,11.73
2022-09-21T22:49:01.907Z,12.05
2022-09-21T22:51:30.222Z,12.30
2022-09-21T22:53:58.014Z,16.25
2022-09-21T22:56:29.121Z,10.75
2022-09-21T22:58:58.281Z,16.63
2022-09-21T23:01:27.723Z,14.27
2022-09-21T23:03:58.421Z,14.52
2022-09-21T23:06:28.111Z,14.88
2022-09-21T23:08:59.400Z,14.20
2022-09-21T23:11:32.104Z,17.02
2022-09-21T23:14:01.112Z,16.23
2022-09-21T23:16:30.254Z,12.93
2022-09-21T23:19:00.018Z,15.65
2022-09-21T23:21:28.867Z,14.32
2022-09-21T23:24:00.244Z,13.90
2022-09-21T23:26:31.328Z,18.63
2022-09-21T23:29:00.627Z,14.10
2022-09-21T23:31:28.742Z,18.25
2022-09-21T23:33:58.295Z,15.35
2022-09-21T23:36:27.691Z,17.00
2022-09-21T23:38:55.824Z,13.20
2022-09-21T23:41:24.907Z,16.33
2022-09-21T23:43:54.775Z,16.80
2022-09-21T23:46:24.734Z,15.90
2022-09-21T23:48:52.852Z,17.05
2022-09-21T23:51:21.156Z,18.67
2022-09-21T23:53:48.944Z,17.48
2022-09-21T23:56:18.488Z,20.33
2022-09-21T23:58:46.795Z,15.48
